createdAt,value
2023-03-29T00:01:34.892Z,98422.72
2023-03-29T00:04:05.985Z,98409.16
2023-03-29T00:06:33.463Z,98418.97
2023-03-29T00:09:01.648Z,98415.94
2023-03-29T00:11:28.099Z,98419.72
2023-03-29T00:13:54.856Z,98427.09
2023-03-29T00:16:21.388Z,98414.94
2023-03-29T00:18:47.920Z,98408.84
2023-03-29T00:21:14.505Z,98400.69
2023-03-29T00:23:41.020Z,98397.06
2023-03-29T00:26:08.388Z,98351.19
2023-03-29T00:28:35.492Z,98394.16
2023-03-29T00:31:15.946Z,98394.41
2023-03-29T00:33:43.797Z,98390.94
2023-03-29T00:36:12.373Z,98394.16
2023-03-29T00:38:39.616Z,98394.16
2023-03-29T00:41:07.942Z,98393.34
2023-03-29T00:44:01.039Z,98390.88
2023-03-29T00:46:30.308Z,98376.13
2023-03-29T00:49:12.779Z,98381.88
2023-03-29T00:51:41.420Z,98379.78
2023-03-29T00:54:14.549Z,98381.63
2023-03-29T00:56:46.948Z,98374.50
2023-03-29T00:59:18.646Z,98375.19
2023-03-29T01:01:46.943Z,98364.03
2023-03-29T01:04:19.559Z,98347.28
2023-03-29T01:06:54.175Z,98354.13
2023-03-29T01:09:24.309Z,98351.72
2023-03-29T01:11:55.640Z,98352.97
2023-03-29T01:14:36.659Z,98341.19
2023-03-29T01:17:04.636Z,98351.88
2023-03-29T01:19:38.668Z,98350.69
2023-03-29T01:22:25.938Z,98341.88
2023-03-29T01:25:06.008Z,98342.00
2023-03-29T01:27:54.772Z,98349.31
2023-03-29T01:30:31.869Z,98344.53
2023-03-29T01:33:21.590Z,98340.50
2023-03-29T01:36:08.107Z,98343.41
2023-03-29T01:38:43.200Z,98337.06
2023-03-29T01:41:12.126Z,98343.69
2023-03-29T01:44:12.331Z,98344.91
2023-03-29T01:46:46.283Z,98337.03
2023-03-29T01:49:28.689Z,98333.22
2023-03-29T01:52:01.168Z,98334.16
2023-03-29T01:55:17.299Z,98324.25
2023-03-29T01:57:47.670Z,98325.53
2023-03-29T02:00:22.279Z,98315.47
2023-03-29T02:02:51.229Z,98320.97
2023-03-29T02:05:20.621Z,98316.31
2023-03-29T02:07:50.414Z,98315.69
2023-03-29T02:10:18.726Z,98307.38
2023-03-29T02:12:45.361Z,98309.56
2023-03-29T02:15:15.709Z,98309.78
2023-03-29T02:17:44.079Z,98304.97
2023-03-29T02:20:17.351Z,98311.13
2023-03-29T02:22:52.110Z,98284.19
2023-03-29T02:25:19.217Z,98295.84
2023-03-29T02:27:46.136Z,98298.56
2023-03-29T02:30:15.675Z,98306.75
2023-03-29T02:32:56.909Z,98306.59
2023-03-29T02:35:38.407Z,98296.97
2023-03-29T02:38:10.477Z,98303.09
2023-03-29T02:40:39.071Z,98297.91
2023-03-29T02:43:07.151Z,98305.56
2023-03-29T02:45:36.450Z,98294.16
2023-03-29T02:48:06.477Z,98301.81
2023-03-29T02:50:39.492Z,98291.97
2023-03-29T02:53:14.587Z,98295.09
2023-03-29T02:55:46.066Z,98302.13
2023-03-29T02:58:14.073Z,98298.31
2023-03-29T03:00:44.849Z,98304.56
2023-03-29T03:03:12.593Z,98296.59
2023-03-29T03:05:39.262Z,98291.94
2023-03-29T03:08:07.500Z,98298.47
2023-03-29T03:10:35.295Z,98297.22
2023-03-29T03:13:03.952Z,98294.75
2023-03-29T03:15:35.553Z,98296.91
2023-03-29T03:18:03.725Z,98285.38
2023-03-29T03:20:31.210Z,98283.72
2023-03-29T03:22:58.546Z,98288.66
2023-03-29T03:25:25.400Z,98282.09
2023-03-29T03:27:53.089Z,98287.66
2023-03-29T03:30:22.000Z,98293.00
2023-03-29T03:33:07.838Z,98291.72
2023-03-29T03:36:02.990Z,98281.16
2023-03-29T03:38:31.936Z,98291.00
2023-03-29T03:41:01.400Z,98272.25
2023-03-29T03:43:31.868Z,98277.19
2023-03-29T03:45:58.376Z,98277.00
2023-03-29T03:48:25.989Z,98271.00
2023-03-29T03:51:18.505Z,98272.81
2023-03-29T03:53:45.726Z,98268.34
2023-03-29T03:56:13.334Z,98277.56
2023-03-29T03:59:09.344Z,98273.78
2023-03-29T04:01:45.442Z,98265.25
2023-03-29T04:04:20.025Z,98228.31
2023-03-29T04:07:02.667Z,98283.38
2023-03-29T04:09:38.912Z,98275.19
2023-03-29T04:12:40.993Z,98284.81
2023-03-29T04:15:10.436Z,98276.84
2023-03-29T04:17:39.048Z,98254.41
2023-03-29T04:20:27.084Z,98268.00
2023-03-29T04:22:53.932Z,98276.03
2023-03-29T04:25:23.924Z,98274.84
2023-03-29T04:28:10.949Z,98270.34
2023-03-29T04:30:52.160Z,98289.06
2023-03-29T04:33:29.341Z,98286.53
2023-03-29T04:35:59.704Z,98286.63
2023-03-29T04:38:26.716Z,98283.69
2023-03-29T04:40:55.693Z,98278.09
2023-03-29T04:43:57.679Z,98290.72
2023-03-29T04:46:26.603Z,98292.38
2023-03-29T04:48:59.386Z,98287.19
2023-03-29T04:51:34.114Z,98279.50
2023-03-29T04:54:01.099Z,98285.97
2023-03-29T04:56:27.798Z,98278.59
2023-03-29T04:59:29.802Z,98273.28
2023-03-29T05:01:56.438Z,98281.59
2023-03-29T05:04:22.985Z,98278.06
2023-03-29T05:07:02.920Z,98282.56
2023-03-29T05:09:29.516Z,98274.06
2023-03-29T05:11:56.103Z,98283.47
2023-03-29T05:14:24.333Z,98281.66
2023-03-29T05:16:50.806Z,98288.16
2023-03-29T05:19:17.774Z,98283.50
2023-03-29T05:21:48.112Z,98280.91
2023-03-29T05:24:19.927Z,98292.13
2023-03-29T05:26:53.574Z,98291.81
2023-03-29T05:29:20.547Z,98292.13
2023-03-29T05:31:52.998Z,98291.63
2023-03-29T05:34:20.033Z,98297.25
2023-03-29T05:36:51.699Z,98294.34
2023-03-29T05:39:18.980Z,98297.84
2023-03-29T05:41:46.439Z,98297.63
2023-03-29T05:44:28.326Z,98300.84
2023-03-29T05:47:02.506Z,98285.38
2023-03-29T05:49:29.006Z,98289.91
2023-03-29T05:52:06.596Z,98292.44
2023-03-29T05:54:33.852Z,98295.03
2023-03-29T05:57:01.439Z,98301.16
2023-03-29T05:59:29.573Z,98304.38
2023-03-29T06:01:56.526Z,98304.78
2023-03-29T06:04:24.444Z,98309.75
2023-03-29T06:07:07.080Z,98306.50
2023-03-29T06:09:34.161Z,98305.16
2023-03-29T06:12:03.908Z,98303.59
2023-03-29T06:14:48.114Z,98304.47
2023-03-29T06:17:33.600Z,98294.91
2023-03-29T06:20:00.908Z,98296.00
2023-03-29T06:22:29.793Z,98297.53
2023-03-29T06:24:56.525Z,98296.34
2023-03-29T06:27:28.092Z,98305.09
2023-03-29T06:29:55.886Z,98302.75
2023-03-29T06:32:23.301Z,98311.81
2023-03-29T06:35:07.850Z,98315.66
2023-03-29T06:37:41.406Z,98318.09
2023-03-29T06:40:21.346Z,98322.09
2023-03-29T06:42:48.405Z,98317.47
2023-03-29T06:45:40.961Z,98317.94
2023-03-29T06:48:17.276Z,98316.56
2023-03-29T06:50:43.814Z,98319.78
2023-03-29T06:53:13.741Z,98311.22
2023-03-29T06:55:42.084Z,98320.03
2023-03-29T06:58:38.217Z,98318.44
2023-03-29T07:01:17.324Z,98323.91
2023-03-29T07:03:49.500Z,98332.38
2023-03-29T07:06:20.494Z,98332.34
2023-03-29T07:08:50.193Z,98325.97
2023-03-29T07:11:25.265Z,98331.78
2023-03-29T07:13:55.421Z,98323.19
2023-03-29T07:16:22.208Z,98331.91
2023-03-29T07:19:17.436Z,98320.19
2023-03-29T07:21:56.929Z,98325.81
2023-03-29T07:24:38.504Z,98331.78
2023-03-29T07:27:05.174Z,98332.28
2023-03-29T07:29:33.191Z,98323.09
2023-03-29T07:32:00.206Z,98330.16
2023-03-29T07:34:42.122Z,98328.41
2023-03-29T07:37:13.346Z,98332.00
2023-03-29T07:39:42.187Z,98328.88
2023-03-29T07:42:28.797Z,98315.88
2023-03-29T07:44:55.924Z,98331.44
2023-03-29T07:47:23.128Z,98320.91
2023-03-29T07:49:50.033Z,98315.69
2023-03-29T07:52:16.863Z,98322.69
2023-03-29T07:54:43.491Z,98330.28
2023-03-29T07:57:24.672Z,98313.78
2023-03-29T07:59:54.325Z,98329.16
2023-03-29T08:02:27.142Z,98335.72
2023-03-29T08:04:57.209Z,98328.38
2023-03-29T08:07:43.149Z,98327.78
2023-03-29T08:10:37.837Z,98319.03
2023-03-29T08:13:10.820Z,98306.16
2023-03-29T08:15:48.847Z,98321.72
2023-03-29T08:18:35.003Z,98309.03
2023-03-29T08:21:02.936Z,98314.19
2023-03-29T08:23:29.667Z,98313.34
2023-03-29T08:26:34.281Z,98313.56
2023-03-29T08:29:01.681Z,98305.53
2023-03-29T08:31:28.202Z,98298.97
2023-03-29T08:33:55.017Z,98257.16
2023-03-29T08:36:40.518Z,98307.75
2023-03-29T08:39:19.634Z,98307.91
2023-03-29T08:42:08.757Z,98299.50
2023-03-29T08:44:45.958Z,98298.56
2023-03-29T08:47:48.453Z,98292.53
2023-03-29T08:50:15.805Z,98298.31
2023-03-29T08:52:52.457Z,98283.59
2023-03-29T08:55:49.008Z,98286.91
2023-03-29T08:58:46.560Z,98282.72
2023-03-29T09:01:13.606Z,98288.13
2023-03-29T09:03:59.345Z,98280.75
2023-03-29T09:06:39.789Z,98274.00
2023-03-29T09:09:20.652Z,98268.22
2023-03-29T09:12:01.868Z,98274.00
2023-03-29T09:14:35.916Z,98272.88
2023-03-29T09:17:15.405Z,98274.97
2023-03-29T09:20:06.299Z,98271.59
2023-03-29T09:23:22.440Z,98279.34
2023-03-29T09:26:22.356Z,98282.59
2023-03-29T09:29:22.375Z,98286.59
2023-03-29T09:31:50.143Z,98288.09
2023-03-29T09:34:20.905Z,98290.53
2023-03-29T09:37:29.850Z,98293.31
2023-03-29T09:39:57.610Z,98279.28
2023-03-29T09:42:40.395Z,98288.16
2023-03-29T09:45:10.594Z,98285.69
2023-03-29T09:47:52.526Z,98271.66
2023-03-29T09:50:31.484Z,98277.69
2023-03-29T09:53:01.508Z,98280.09
2023-03-29T09:55:33.825Z,98289.34
2023-03-29T09:58:27.734Z,98269.47
2023-03-29T10:00:59.034Z,98256.66
2023-03-29T10:03:28.439Z,98261.91
2023-03-29T10:06:17.135Z,98255.44
2023-03-29T10:08:56.976Z,98244.28
2023-03-29T10:11:38.318Z,98243.41
2023-03-29T10:14:22.917Z,98231.66
2023-03-29T10:16:56.842Z,98238.53
2023-03-29T10:19:32.950Z,98223.31
2023-03-29T10:22:01.801Z,98234.19
2023-03-29T10:24:28.506Z,98215.03
2023-03-29T10:27:00.069Z,98224.94
2023-03-29T10:29:27.769Z,98220.63
2023-03-29T10:31:54.735Z,98212.81
2023-03-29T10:34:25.765Z,98205.38
2023-03-29T10:36:59.074Z,98207.75
2023-03-29T10:39:29.312Z,98206.88
2023-03-29T10:41:58.165Z,98204.72
2023-03-29T10:44:33.161Z,98206.94
2023-03-29T10:47:16.776Z,98201.66
2023-03-29T10:49:47.076Z,98197.00
2023-03-29T10:52:15.100Z,98198.72
2023-03-29T10:54:42.076Z,98189.56
2023-03-29T10:57:11.120Z,98194.81
2023-03-29T11:00:09.479Z,98207.09
2023-03-29T11:02:54.909Z,98203.19
2023-03-29T11:05:43.135Z,98202.69
2023-03-29T11:08:24.866Z,98206.97
2023-03-29T11:11:15.638Z,98203.69
2023-03-29T11:13:59.995Z,98210.06
2023-03-29T11:16:47.099Z,98214.06
2023-03-29T11:19:37.947Z,98227.38
2023-03-29T11:22:24.056Z,98222.25
2023-03-29T11:25:09.975Z,98222.94
2023-03-29T11:27:59.506Z,98224.75
2023-03-29T11:30:49.116Z,98218.00
2023-03-29T11:33:30.677Z,98221.38
2023-03-29T11:36:18.239Z,98214.94
2023-03-29T11:38:55.575Z,98214.16
2023-03-29T11:41:27.442Z,98206.03
2023-03-29T11:44:19.771Z,98207.25
2023-03-29T11:46:52.144Z,98209.00
2023-03-29T11:49:40.366Z,98200.44
2023-03-29T11:52:16.276Z,98202.81
2023-03-29T11:54:50.528Z,98180.91
2023-03-29T11:57:38.132Z,98197.22
2023-03-29T12:00:15.858Z,98183.88
2023-03-29T12:02:47.890Z,98168.31
2023-03-29T12:05:33.620Z,98191.06
2023-03-29T12:08:04.886Z,98183.03
2023-03-29T12:10:37.855Z,98174.69
2023-03-29T12:13:15.241Z,98184.63
2023-03-29T12:15:48.129Z,98179.75
2023-03-29T12:18:24.913Z,98173.34
2023-03-29T12:20:59.446Z,98178.44
2023-03-29T12:23:30.301Z,98165.72
2023-03-29T12:26:06.045Z,98179.06
2023-03-29T12:28:46.614Z,98177.78
2023-03-29T12:31:19.406Z,98176.06
2023-03-29T12:34:04.752Z,98184.13
2023-03-29T12:37:32.923Z,98164.75
2023-03-29T12:40:20.476Z,98162.78
2023-03-29T12:43:32.470Z,98158.09
2023-03-29T12:46:37.528Z,98162.41
2023-03-29T12:49:28.144Z,98129.50
2023-03-29T12:51:58.647Z,98154.00
2023-03-29T12:54:31.285Z,98169.56
2023-03-29T12:57:02.410Z,98161.31
2023-03-29T12:59:46.824Z,98158.88
2023-03-29T13:02:13.990Z,98151.69
2023-03-29T13:04:43.573Z,98143.91
2023-03-29T13:07:22.306Z,98150.91
2023-03-29T13:09:51.794Z,98152.03
2023-03-29T13:12:27.083Z,98149.38
2023-03-29T13:15:01.079Z,98152.66
2023-03-29T13:17:34.821Z,98147.28
2023-03-29T13:20:31.988Z,98136.28
2023-03-29T13:23:12.680Z,98129.81
2023-03-29T13:25:58.276Z,98140.03
2023-03-29T13:28:36.980Z,98131.88
2023-03-29T13:31:23.317Z,98122.75
2023-03-29T13:34:26.830Z,98126.25
2023-03-29T13:37:20.939Z,98120.59
2023-03-29T13:39:50.565Z,98122.50
2023-03-29T13:42:35.370Z,98122.84
2023-03-29T13:45:13.818Z,98130.22
2023-03-29T13:47:58.322Z,98134.59
2023-03-29T13:50:35.087Z,98135.78
2023-03-29T13:53:15.375Z,98133.16
2023-03-29T13:55:47.290Z,98126.75
2023-03-29T13:58:27.373Z,98124.13
2023-03-29T14:01:28.824Z,98127.41
2023-03-29T14:03:56.591Z,98125.81
2023-03-29T14:06:36.484Z,98131.13
2023-03-29T14:09:07.156Z,98125.81
2023-03-29T14:11:34.803Z,98126.38
2023-03-29T14:14:05.064Z,98129.09
2023-03-29T14:16:35.629Z,98124.75
2023-03-29T14:19:32.936Z,98121.94
2023-03-29T14:22:01.607Z,98135.78
2023-03-29T14:24:35.580Z,98127.28
2023-03-29T14:27:04.602Z,98123.69
2023-03-29T14:29:32.764Z,98107.72
2023-03-29T14:32:16.521Z,98108.28
2023-03-29T14:34:47.005Z,98098.09
2023-03-29T14:37:17.253Z,98105.41
2023-03-29T14:39:43.680Z,98100.63
2023-03-29T14:42:24.177Z,98097.13
2023-03-29T14:44:51.015Z,98088.28
2023-03-29T14:47:27.391Z,98083.72
2023-03-29T14:49:56.815Z,98077.88
2023-03-29T14:52:24.083Z,98077.06
2023-03-29T14:54:56.469Z,98079.06
2023-03-29T14:57:26.277Z,98066.47
2023-03-29T14:59:58.537Z,98063.59
2023-03-29T15:02:27.907Z,98071.13
2023-03-29T15:05:18.803Z,98066.78
2023-03-29T15:07:45.805Z,98071.59
2023-03-29T15:10:19.097Z,98069.97
2023-03-29T15:12:46.487Z,98064.91
2023-03-29T15:15:13.542Z,98064.59
2023-03-29T15:17:50.881Z,98072.16
2023-03-29T15:20:23.910Z,98071.66
2023-03-29T15:23:09.402Z,98063.63
2023-03-29T15:25:48.841Z,98063.63
2023-03-29T15:28:46.734Z,98054.47
2023-03-29T15:31:17.629Z,98052.94
2023-03-29T15:33:44.671Z,98048.44
2023-03-29T15:36:13.570Z,98049.66
2023-03-29T15:38:44.632Z,98049.00
2023-03-29T15:41:14.200Z,98046.13
2023-03-29T15:43:41.660Z,98044.13
2023-03-29T15:46:10.302Z,98034.88
2023-03-29T15:48:37.337Z,98036.53
2023-03-29T15:51:06.392Z,98032.75
2023-03-29T15:53:33.384Z,98028.47
2023-03-29T15:56:02.412Z,98029.81
2023-03-29T15:58:31.643Z,98028.00
2023-03-29T16:01:19.145Z,98021.50
2023-03-29T16:03:47.862Z,98012.88
2023-03-29T16:06:16.644Z,98004.69
2023-03-29T16:08:43.145Z,98007.13
2023-03-29T16:11:09.856Z,98006.91
2023-03-29T16:13:36.348Z,98010.69
2023-03-29T16:16:03.219Z,98001.81
2023-03-29T16:18:29.960Z,97996.16
2023-03-29T16:20:56.943Z,97992.94
2023-03-29T16:23:23.395Z,97987.25
2023-03-29T16:25:49.906Z,97993.47
2023-03-29T16:28:16.367Z,97990.44
2023-03-29T16:30:43.036Z,97987.75
2023-03-29T16:33:10.832Z,97978.88
2023-03-29T16:35:39.744Z,97976.16
2023-03-29T16:38:07.114Z,97979.13
2023-03-29T16:40:34.219Z,97973.47
2023-03-29T16:43:00.893Z,97975.06
2023-03-29T16:45:27.455Z,97968.59
2023-03-29T16:47:54.476Z,97968.75
2023-03-29T16:50:21.808Z,97969.59
2023-03-29T16:52:48.945Z,97964.44
2023-03-29T16:55:18.780Z,97923.94
2023-03-29T16:57:46.821Z,97957.94
2023-03-29T17:00:15.888Z,97941.84
2023-03-29T17:02:43.636Z,97939.19
2023-03-29T17:05:11.749Z,97944.28
2023-03-29T17:07:39.295Z,97934.59
2023-03-29T17:10:08.188Z,97952.94
2023-03-29T17:12:35.396Z,97947.50
2023-03-29T17:15:02.306Z,97950.75
2023-03-29T17:17:28.798Z,97935.09
2023-03-29T17:19:56.568Z,97934.00
2023-03-29T17:22:23.847Z,97934.56
2023-03-29T17:24:51.506Z,97920.81
2023-03-29T17:27:18.323Z,97914.13
2023-03-29T17:29:44.754Z,97919.69
2023-03-29T17:32:11.177Z,97918.03
2023-03-29T17:34:38.624Z,97917.19
2023-03-29T17:37:05.342Z,97915.84
2023-03-29T17:39:32.077Z,97918.72
2023-03-29T17:41:58.573Z,97871.84
2023-03-29T17:44:25.042Z,97910.06
2023-03-29T17:46:51.527Z,97924.03
2023-03-29T17:49:17.971Z,97924.03
2023-03-29T17:51:44.423Z,97924.56
2023-03-29T17:54:11.106Z,97918.06
2023-03-29T17:56:37.584Z,97914.78
2023-03-29T17:59:04.008Z,97909.69
2023-03-29T18:01:30.829Z,97917.97
2023-03-29T18:03:57.338Z,97923.53
2023-03-29T18:06:23.858Z,97919.53
2023-03-29T18:08:50.324Z,97918.88
2023-03-29T18:11:22.317Z,97920.09
2023-03-29T18:13:50.445Z,97926.38
2023-03-29T18:16:17.557Z,97924.38
2023-03-29T18:18:46.284Z,97926.44
2023-03-29T18:21:14.688Z,97929.09
2023-03-29T18:23:44.868Z,97931.28
2023-03-29T18:26:12.181Z,97907.47
2023-03-29T18:28:38.622Z,97922.53
2023-03-29T18:31:05.960Z,97928.19
2023-03-29T18:33:35.224Z,97917.38
2023-03-29T18:36:04.769Z,97926.72
2023-03-29T18:38:35.033Z,97912.16
2023-03-29T18:41:02.839Z,97917.31
2023-03-29T18:43:30.031Z,97911.88
2023-03-29T18:45:57.160Z,97906.53
2023-03-29T18:48:23.718Z,97906.53
2023-03-29T18:50:51.284Z,97905.16
2023-03-29T18:53:18.503Z,97903.16
2023-03-29T18:55:45.147Z,97894.66
2023-03-29T18:58:13.229Z,97894.44
2023-03-29T19:00:41.120Z,97902.75
2023-03-29T19:03:08.649Z,97903.84
2023-03-29T19:05:39.173Z,97888.59
2023-03-29T19:08:06.956Z,97888.94
2023-03-29T19:10:37.709Z,97889.00
2023-03-29T19:13:05.404Z,97885.69
2023-03-29T19:15:33.849Z,97876.59
2023-03-29T19:18:00.406Z,97890.91
2023-03-29T19:20:27.347Z,97893.53
2023-03-29T19:22:53.822Z,97882.66
2023-03-29T19:25:20.588Z,97866.25
2023-03-29T19:27:47.628Z,97878.44
2023-03-29T19:30:15.104Z,97875.13
2023-03-29T19:32:41.600Z,97872.38
2023-03-29T19:35:09.548Z,97873.84
2023-03-29T19:37:36.180Z,97869.25
2023-03-29T19:40:02.683Z,97834.69
2023-03-29T19:42:29.140Z,97864.50
2023-03-29T19:44:55.613Z,97855.50
2023-03-29T19:47:22.054Z,97855.94
2023-03-29T19:49:48.593Z,97849.59
2023-03-29T19:52:14.983Z,97851.72
2023-03-29T19:54:42.409Z,97846.09
2023-03-29T19:57:09.286Z,97836.19
2023-03-29T19:59:37.653Z,97842.66
2023-03-29T20:02:04.636Z,97834.63
2023-03-29T20:04:33.282Z,97835.22
2023-03-29T20:07:00.010Z,97835.28
2023-03-29T20:09:26.596Z,97832.09
2023-03-29T20:11:53.035Z,97829.41
2023-03-29T20:14:19.461Z,97824.41
2023-03-29T20:16:46.431Z,97831.69
2023-03-29T20:19:14.207Z,97818.84
2023-03-29T20:21:40.721Z,97814.81
2023-03-29T20:24:08.768Z,97800.94
2023-03-29T20:26:35.461Z,97800.72
2023-03-29T20:29:02.043Z,97810.41
2023-03-29T20:31:29.493Z,97806.16
2023-03-29T20:33:57.538Z,97804.56
2023-03-29T20:36:24.567Z,97801.34
2023-03-29T20:38:51.382Z,97800.88
2023-03-29T20:41:19.510Z,97788.06
2023-03-29T20:43:46.153Z,97792.38
2023-03-29T20:46:22.516Z,97786.47
2023-03-29T20:48:55.030Z,97784.38
2023-03-29T20:51:30.237Z,97792.94
2023-03-29T20:54:02.797Z,97783.03
2023-03-29T20:56:31.549Z,97767.22
2023-03-29T20:58:58.841Z,97776.34
2023-03-29T21:01:27.760Z,97765.03
2023-03-29T21:03:54.339Z,97768.31
2023-03-29T21:06:21.165Z,97755.94
2023-03-29T21:08:47.660Z,97750.03
2023-03-29T21:11:15.279Z,97753.56
2023-03-29T21:13:42.900Z,97755.72
2023-03-29T21:16:10.616Z,97753.88
2023-03-29T21:18:38.701Z,97752.25
2023-03-29T21:21:07.025Z,97759.50
2023-03-29T21:23:33.906Z,97755.19
2023-03-29T21:26:00.580Z,97739.63
2023-03-29T21:28:27.012Z,97749.81
2023-03-29T21:30:53.612Z,97750.06
2023-03-29T21:33:20.389Z,97750.06
2023-03-29T21:35:48.461Z,97744.47
2023-03-29T21:38:15.456Z,97747.38
2023-03-29T21:40:41.930Z,97746.03
2023-03-29T21:43:09.148Z,97744.69
2023-03-29T21:45:35.630Z,97744.66
2023-03-29T21:48:02.247Z,97743.63
2023-03-29T21:50:31.361Z,97738.50
2023-03-29T21:53:01.543Z,97742.25
2023-03-29T21:55:28.144Z,97745.75
2023-03-29T21:57:54.720Z,97742.50
2023-03-29T22:00:22.258Z,97743.28
2023-03-29T22:02:48.727Z,97744.16
2023-03-29T22:05:16.212Z,97749.50
2023-03-29T22:07:42.747Z,97743.59
2023-03-29T22:10:12.594Z,97756.44
2023-03-29T22:12:39.631Z,97755.34
2023-03-29T22:15:07.838Z,97748.63
2023-03-29T22:17:35.752Z,97750.50
2023-03-29T22:20:04.411Z,97747.53
2023-03-29T22:22:30.878Z,97749.69
2023-03-29T22:24:57.418Z,97751.03
2023-03-29T22:27:23.830Z,97760.63
2023-03-29T22:29:50.339Z,97767.63
2023-03-29T22:32:16.826Z,97761.75
2023-03-29T22:34:43.397Z,97763.56
2023-03-29T22:37:09.825Z,97779.69
2023-03-29T22:39:36.837Z,97758.53
2023-03-29T22:42:03.484Z,97767.66
2023-03-29T22:44:30.374Z,97767.16
2023-03-29T22:46:56.789Z,97781.66
2023-03-29T22:49:23.503Z,97775.72
2023-03-29T22:51:49.924Z,97782.19
2023-03-29T22:54:16.452Z,97786.19
2023-03-29T22:56:43.226Z,97771.44
2023-03-29T22:59:09.687Z,97785.88
2023-03-29T23:01:36.112Z,97785.59
2023-03-29T23:04:02.867Z,97789.06
2023-03-29T23:06:29.288Z,97779.75
2023-03-29T23:08:55.878Z,97760.19
2023-03-29T23:11:22.762Z,97770.91
2023-03-29T23:13:49.292Z,97764.69
2023-03-29T23:16:16.173Z,97749.44
2023-03-29T23:18:42.808Z,97726.34
2023-03-29T23:21:10.392Z,97713.41
2023-03-29T23:23:37.000Z,97695.13
2023-03-29T23:26:03.897Z,97696.75
2023-03-29T23:28:31.476Z,97706.94
2023-03-29T23:31:04.449Z,97695.94
2023-03-29T23:33:34.903Z,97704.00
2023-03-29T23:36:07.668Z,97690.84
2023-03-29T23:38:36.854Z,97685.53
2023-03-29T23:41:06.130Z,97689.28
2023-03-29T23:43:34.941Z,97682.56
2023-03-29T23:46:04.221Z,97680.13
2023-03-29T23:48:31.555Z,97680.44
2023-03-29T23:50:58.077Z,97682.84
2023-03-29T23:53:28.357Z,97665.66
2023-03-29T23:56:02.936Z,97662.19
2023-03-29T23:58:34.784Z,97660.84
